Time;durP1;ratioP1;P1;durP2;ratioP2;P2;SDS_P1;SDS_P2;PMS_P1;PMS_P2;Temp;Humidity;BMP_temperature;BMP_pressure;BME280_temperature;BME280_humidity;BME280_pressure;Samples;Min_cycle;Max_cycle;Signal;HPM_P1;HPM_P2
2023/07/25 00:01:09;;;;;;;19.75;9.45;;;22.40;99.90;;;;;;4986146;28;20027;-83
2023/07/25 00:03:35;;;;;;;15.20;8.02;;;22.30;99.90;;;;;;4989396;28;20125;-81
2023/07/25 00:06:03;;;;;;;12.95;7.40;;;22.20;99.90;;;;;;4989041;28;20506;-83
2023/07/25 00:08:29;;;;;;;19.23;7.88;;;22.10;99.90;;;;;;4989621;28;20030;-83
2023/07/25 00:10:55;;;;;;;26.42;9.27;;;22.10;99.90;;;;;;4989824;28;20040;-83
2023/07/25 00:13:20;;;;;;;14.25;8.70;;;22.10;99.90;;;;;;4989600;28;20030;-84
2023/07/25 00:15:46;;;;;;;15.65;8.80;;;22.10;99.90;;;;;;4989874;28;20122;-83
2023/07/25 00:18:12;;;;;;;12.98;7.70;;;22.00;99.90;;;;;;4989140;28;20057;-81
2023/07/25 00:20:37;;;;;;;19.95;8.40;;;22.00;99.90;;;;;;4989302;28;20131;-83
2023/07/25 00:23:03;;;;;;;17.55;9.60;;;21.90;99.90;;;;;;4990866;28;20073;-81
2023/07/25 00:25:29;;;;;;;16.15;9.48;;;21.90;99.90;;;;;;4990849;28;20035;-83
2023/07/25 00:27:54;;;;;;;20.05;10.13;;;21.90;99.90;;;;;;4990479;28;20038;-82
2023/07/25 00:30:20;;;;;;;19.85;9.05;;;21.90;99.90;;;;;;4988778;28;20092;-83
2023/07/25 00:32:45;;;;;;;18.45;8.45;;;21.80;99.90;;;;;;4990016;28;20053;-83
2023/07/25 00:35:12;;;;;;;17.55;9.02;;;21.80;99.90;;;;;;4988930;28;20069;-82
2023/07/25 00:37:37;;;;;;;15.10;9.30;;;21.80;99.90;;;;;;4988961;28;20035;-83
2023/07/25 00:40:03;;;;;;;17.75;8.93;;;21.90;99.90;;;;;;4988513;28;20034;-82
2023/07/25 00:42:29;;;;;;;16.92;9.10;;;21.80;99.90;;;;;;4989777;28;20542;-82
2023/07/25 00:44:54;;;;;;;16.70;9.15;;;21.90;99.90;;;;;;4989907;28;20167;-83
2023/07/25 00:47:22;;;;;;;13.25;8.02;;;21.90;99.90;;;;;;4989763;28;20039;-82
2023/07/25 00:49:49;;;;;;;15.95;9.23;;;21.80;99.90;;;;;;4988178;28;20030;-83
2023/07/25 00:52:16;;;;;;;17.50;9.00;;;21.80;99.90;;;;;;4989799;28;20045;-83
2023/07/25 00:54:47;;;;;;;15.43;8.70;;;21.80;99.90;;;;;;4990650;28;20026;-85
2023/07/25 00:57:16;;;;;;;15.52;9.05;;;21.90;99.90;;;;;;4991386;28;20033;-86
2023/07/25 00:59:43;;;;;;;16.52;8.48;;;21.90;99.90;;;;;;4990366;28;20038;-84
2023/07/25 01:02:09;;;;;;;18.40;8.65;;;21.80;99.90;;;;;;4991737;28;20148;-85
2023/07/25 01:04:37;;;;;;;14.35;8.48;;;21.80;99.90;;;;;;4991535;28;20123;-84
2023/07/25 01:07:04;;;;;;;17.60;7.90;;;21.80;99.90;;;;;;4991464;28;20407;-84
2023/07/25 01:09:41;;;;;;;18.88;8.23;;;21.90;99.90;;;;;;4990006;28;20033;-85
2023/07/25 01:12:08;;;;;;;17.75;8.45;;;21.80;99.90;;;;;;4990068;28;20022;-84
2023/07/25 01:14:35;;;;;;;18.08;8.38;;;21.80;99.90;;;;;;4989806;28;20030;-84
2023/07/25 01:17:13;;;;;;;17.33;8.30;;;21.80;99.90;;;;;;4989983;28;20031;-85
2023/07/25 01:19:41;;;;;;;17.65;8.32;;;21.80;99.90;;;;;;4989949;28;20076;-84
2023/07/25 01:22:08;;;;;;;13.45;8.23;;;21.80;99.90;;;;;;4991422;28;20155;-84
2023/07/25 01:24:35;;;;;;;13.32;8.50;;;21.70;99.90;;;;;;4991289;28;20122;-85
2023/07/25 01:27:02;;;;;;;13.05;7.95;;;21.70;99.90;;;;;;4990448;28;20034;-85
2023/07/25 01:29:28;;;;;;;17.27;8.13;;;21.70;99.90;;;;;;4991034;28;20028;-85
2023/07/25 01:31:54;;;;;;;13.98;7.75;;;21.70;99.90;;;;;;4991041;28;20026;-84
2023/07/25 01:34:19;;;;;;;12.93;7.57;;;21.80;99.90;;;;;;4991061;28;20029;-85
2023/07/25 01:36:45;;;;;;;15.13;8.25;;;21.80;99.90;;;;;;4991094;28;20030;-85
2023/07/25 01:39:11;;;;;;;17.27;7.32;;;21.80;99.90;;;;;;4991055;28;20037;-85
2023/07/25 01:41:40;;;;;;;17.90;8.63;;;21.90;99.90;;;;;;4989657;28;20046;-85
2023/07/25 01:44:05;;;;;;;18.38;8.10;;;21.90;99.90;;;;;;4990759;28;20053;-84
2023/07/25 01:46:31;;;;;;;16.83;8.63;;;22.00;99.90;;;;;;4989738;28;20030;-83
2023/07/25 01:48:57;;;;;;;17.95;8.32;;;22.10;99.90;;;;;;4989503;28;20029;-83
2023/07/25 01:51:22;;;;;;;11.85;7.22;;;22.10;99.90;;;;;;4989272;28;20071;-81
2023/07/25 01:53:48;;;;;;;14.40;7.93;;;22.10;99.90;;;;;;4989563;28;20026;-82
2023/07/25 01:56:14;;;;;;;15.93;8.52;;;22.20;99.90;;;;;;4989846;28;20531;-83
2023/07/25 01:58:39;;;;;;;18.30;8.60;;;22.20;99.90;;;;;;4988330;28;20466;-83
2023/07/25 02:01:05;;;;;;;13.23;7.97;;;22.20;99.90;;;;;;4989624;28;20390;-84
2023/07/25 02:03:31;;;;;;;16.35;8.30;;;22.10;99.90;;;;;;4989575;28;20087;-82
2023/07/25 02:05:56;;;;;;;21.80;8.18;;;22.10;99.90;;;;;;4989532;28;20026;-83
2023/07/25 02:08:22;;;;;;;15.80;8.77;;;22.00;99.90;;;;;;4987886;28;20499;-83
2023/07/25 02:10:47;;;;;;;14.88;8.70;;;22.00;99.90;;;;;;4988859;28;20076;-83
2023/07/25 02:13:13;;;;;;;15.88;8.30;;;22.00;99.90;;;;;;4987400;28;20505;-83
2023/07/25 02:15:39;;;;;;;14.27;8.07;;;22.00;99.90;;;;;;4987966;28;20022;-83
2023/07/25 02:18:04;;;;;;;20.08;8.60;;;22.00;99.90;;;;;;4989269;28;20026;-83
2023/07/25 02:20:31;;;;;;;16.85;7.63;;;22.00;99.90;;;;;;4989317;28;20364;-84
2023/07/25 02:22:57;;;;;;;18.48;8.00;;;22.10;99.90;;;;;;4988212;28;20034;-83
2023/07/25 02:25:24;;;;;;;11.75;7.93;;;22.00;99.90;;;;;;4986847;28;20034;-82
2023/07/25 02:27:49;;;;;;;13.77;8.07;;;22.10;99.90;;;;;;4986435;28;20027;-82
2023/07/25 02:30:15;;;;;;;18.00;8.38;;;22.10;99.90;;;;;;4986987;28;20543;-82
2023/07/25 02:32:40;;;;;;;17.90;8.20;;;22.10;99.90;;;;;;4989967;28;20026;-82
2023/07/25 02:35:06;;;;;;;17.63;8.13;;;22.10;99.90;;;;;;4987155;28;20030;-82
2023/07/25 02:37:32;;;;;;;11.95;7.35;;;22.10;99.90;;;;;;4988698;28;20061;-83
2023/07/25 02:39:57;;;;;;;11.38;6.95;;;22.10;99.90;;;;;;4988655;28;20038;-83
2023/07/25 02:42:23;;;;;;;16.40;6.70;;;22.00;99.90;;;;;;4989246;28;20038;-84
2023/07/25 02:44:49;;;;;;;15.25;7.80;;;22.00;99.90;;;;;;4989422;28;20402;-83
2023/07/25 02:47:14;;;;;;;12.50;6.85;;;22.00;99.90;;;;;;4987720;28;20066;-83
2023/07/25 02:49:40;;;;;;;20.48;7.53;;;22.00;99.90;;;;;;4988814;28;20109;-83
2023/07/25 02:52:06;;;;;;;10.45;6.32;;;21.90;99.90;;;;;;4987605;28;20030;-83
2023/07/25 02:54:31;;;;;;;14.15;6.20;;;21.90;99.90;;;;;;4987005;28;20050;-83
2023/07/25 02:56:57;;;;;;;12.27;6.90;;;21.90;99.90;;;;;;4987504;28;20458;-84
2023/07/25 02:59:23;;;;;;;9.30;5.85;;;21.90;99.90;;;;;;4987950;28;20399;-85
2023/07/25 03:01:48;;;;;;;10.88;5.90;;;21.90;99.90;;;;;;4988972;28;20503;-84
2023/07/25 03:04:14;;;;;;;10.00;5.75;;;21.90;99.90;;;;;;4989046;28;20133;-84
2023/07/25 03:06:39;;;;;;;11.27;5.22;;;21.90;99.90;;;;;;4988079;28;20032;-83
2023/07/25 03:09:05;;;;;;;10.02;4.50;;;22.00;99.90;;;;;;4987881;28;20081;-84
2023/07/25 03:11:31;;;;;;;10.30;4.65;;;22.10;99.90;;;;;;4988306;28;20079;-83
2023/07/25 03:13:56;;;;;;;10.38;5.35;;;22.20;99.90;;;;;;4987422;28;20034;-84
2023/07/25 03:16:22;;;;;;;9.20;4.90;;;22.20;99.90;;;;;;4987564;28;20065;-83
2023/07/25 03:18:47;;;;;;;9.40;4.90;;;22.20;99.90;;;;;;4988408;28;20035;-84
2023/07/25 03:21:13;;;;;;;8.35;4.50;;;22.20;99.90;;;;;;4989220;28;20494;-84
2023/07/25 03:23:39;;;;;;;8.32;4.40;;;22.30;99.90;;;;;;4989146;28;20038;-85
2023/07/25 03:26:04;;;;;;;8.10;4.80;;;22.40;99.90;;;;;;4987328;28;20041;-84
2023/07/25 03:28:30;;;;;;;11.98;4.00;;;22.40;99.90;;;;;;4988297;28;20030;-83
2023/07/25 03:30:56;;;;;;;7.80;3.80;;;22.30;99.90;;;;;;4987983;28;20034;-82
2023/07/25 03:33:21;;;;;;;4.90;3.33;;;22.20;99.90;;;;;;4988319;28;20031;-81
2023/07/25 03:35:47;;;;;;;4.85;2.90;;;22.30;99.90;;;;;;4987901;28;20034;-83
2023/07/25 03:38:13;;;;;;;7.97;3.65;;;22.40;99.90;;;;;;4988380;28;20037;-82
2023/07/25 03:40:38;;;;;;;13.10;3.72;;;22.40;99.90;;;;;;4990032;28;20170;-82
2023/07/25 03:43:04;;;;;;;10.45;4.00;;;22.50;99.90;;;;;;4989240;28;20295;-82
2023/07/25 03:45:30;;;;;;;8.02;4.18;;;22.50;99.90;;;;;;4989473;28;20041;-81
2023/07/25 03:47:55;;;;;;;6.15;4.05;;;22.50;99.90;;;;;;4990172;28;20111;-81
2023/07/25 03:50:21;;;;;;;8.07;3.88;;;22.50;99.90;;;;;;4990787;28;20058;-83
2023/07/25 03:52:46;;;;;;;12.57;3.92;;;22.60;99.90;;;;;;4990319;28;20019;-82
2023/07/25 03:55:12;;;;;;;7.05;3.47;;;22.50;99.90;;;;;;4990412;28;20034;-81
2023/07/25 03:57:38;;;;;;;6.80;3.78;;;22.60;99.50;;;;;;4990973;28;20076;-81
2023/07/25 04:00:04;;;;;;;8.55;3.30;;;22.60;99.10;;;;;;4990898;28;20035;-80
2023/07/25 04:02:30;;;;;;;5.60;3.78;;;22.70;98.00;;;;;;4990858;28;20127;-81
2023/07/25 04:04:56;;;;;;;8.35;3.00;;;22.80;96.90;;;;;;4989538;28;20449;-82
2023/07/25 04:07:21;;;;;;;7.28;3.83;;;22.80;96.80;;;;;;4990697;28;20030;-81
2023/07/25 04:09:47;;;;;;;6.72;3.60;;;22.90;96.70;;;;;;4990752;28;20034;-82
2023/07/25 04:12:13;;;;;;;6.47;3.58;;;22.90;96.70;;;;;;4990712;28;20026;-81
2023/07/25 04:14:40;;;;;;;9.85;3.50;;;23.00;97.40;;;;;;4990890;28;20092;-81
2023/07/25 04:17:05;;;;;;;6.00;3.00;;;23.00;96.70;;;;;;4988827;28;20026;-81
2023/07/25 04:19:31;;;;;;;7.90;3.63;;;23.10;94.90;;;;;;4990475;28;20487;-83
2023/07/25 04:21:57;;;;;;;15.13;4.45;;;23.10;94.80;;;;;;4989258;28;20018;-83
2023/07/25 04:24:22;;;;;;;8.82;4.85;;;23.20;94.60;;;;;;4990687;28;20038;-84
2023/07/25 04:26:48;;;;;;;6.53;3.83;;;23.20;94.60;;;;;;4990688;28;20027;-82
2023/07/25 04:29:14;;;;;;;7.72;3.50;;;23.30;94.80;;;;;;4990199;28;20035;-83
2023/07/25 04:31:39;;;;;;;5.88;3.15;;;23.30;94.60;;;;;;4990282;28;20477;-82
2023/07/25 04:34:05;;;;;;;6.00;3.28;;;23.40;93.80;;;;;;4988965;28;20030;-83
2023/07/25 04:36:31;;;;;;;5.85;3.53;;;23.40;93.60;;;;;;4990002;28;20031;-81
2023/07/25 04:38:56;;;;;;;5.80;3.03;;;23.50;93.80;;;;;;4990061;28;20031;-83
2023/07/25 04:41:23;;;;;;;6.18;3.45;;;23.60;94.00;;;;;;4989085;28;20570;-84
2023/07/25 04:43:48;;;;;;;7.72;3.47;;;23.70;94.40;;;;;;4989972;28;20105;-84
2023/07/25 04:46:14;;;;;;;5.80;3.45;;;23.80;94.80;;;;;;4989379;28;20101;-84
2023/07/25 04:48:40;;;;;;;4.88;3.13;;;23.90;94.90;;;;;;4989090;28;20035;-83
2023/07/25 04:51:05;;;;;;;8.18;3.83;;;24.00;94.80;;;;;;4988223;28;20037;-84
2023/07/25 04:53:31;;;;;;;8.52;3.53;;;24.00;93.80;;;;;;4989264;28;20023;-84
2023/07/25 04:55:56;;;;;;;6.15;3.47;;;24.10;93.60;;;;;;4988858;28;20034;-84
2023/07/25 04:58:22;;;;;;;9.55;3.50;;;24.20;93.70;;;;;;4990184;28;20023;-84
2023/07/25 05:00:48;;;;;;;7.10;3.42;;;24.10;94.20;;;;;;4988712;28;20027;-84
2023/07/25 05:03:13;;;;;;;8.90;4.35;;;24.10;94.50;;;;;;4988651;28;20045;-84
2023/07/25 05:05:39;;;;;;;12.23;3.70;;;24.10;94.00;;;;;;4990074;28;20045;-83
2023/07/25 05:08:04;;;;;;;6.90;3.65;;;24.10;93.40;;;;;;4989612;28;20038;-84
2023/07/25 05:10:31;;;;;;;5.57;3.63;;;24.10;93.30;;;;;;4988580;28;20030;-83
2023/07/25 05:12:57;;;;;;;6.60;3.53;;;24.20;93.40;;;;;;4989808;28;20105;-84
2023/07/25 05:15:23;;;;;;;11.60;3.17;;;24.30;93.90;;;;;;4988797;28;20122;-84
2023/07/25 05:17:49;;;;;;;6.18;3.75;;;24.50;93.40;;;;;;4988717;28;20505;-82
2023/07/25 05:20:15;;;;;;;7.63;3.45;;;24.60;93.20;;;;;;4988696;28;20034;-82
2023/07/25 05:22:40;;;;;;;5.65;3.08;;;24.70;94.10;;;;;;4989824;28;20023;-82
2023/07/25 05:25:06;;;;;;;7.28;4.47;;;24.80;94.70;;;;;;4989630;28;20030;-82
2023/07/25 05:27:32;;;;;;;6.10;3.40;;;24.90;94.80;;;;;;4988378;28;20041;-84
2023/07/25 05:29:58;;;;;;;9.68;3.65;;;24.90;94.20;;;;;;4987836;28;20030;-84
2023/07/25 05:32:23;;;;;;;7.43;3.97;;;25.00;93.80;;;;;;4989251;28;20026;-84
2023/07/25 05:34:49;;;;;;;5.90;3.85;;;25.20;94.00;;;;;;4989070;28;20019;-82
2023/07/25 05:37:18;;;;;;;7.40;3.83;;;25.20;93.90;;;;;;4989577;28;20125;-82
2023/07/25 05:39:44;;;;;;;6.45;3.65;;;25.30;92.20;;;;;;4988358;28;20088;-81
2023/07/25 05:42:09;;;;;;;8.85;3.40;;;25.40;91.20;;;;;;4989635;28;20058;-82
2023/07/25 05:44:35;;;;;;;8.55;3.42;;;25.60;90.50;;;;;;4989140;28;20098;-82
2023/07/25 05:47:04;;;;;;;9.85;3.50;;;25.80;90.20;;;;;;4989143;28;20106;-82
2023/07/25 05:49:30;;;;;;;6.80;4.32;;;25.90;90.00;;;;;;4988679;28;20030;-82
2023/07/25 05:51:56;;;;;;;6.43;3.55;;;26.00;89.50;;;;;;4987889;28;20023;-83
2023/07/25 05:54:22;;;;;;;9.45;4.07;;;26.10;88.50;;;;;;4988892;28;20050;-82
2023/07/25 05:56:47;;;;;;;7.72;3.95;;;26.40;87.90;;;;;;4989074;28;20046;-82
2023/07/25 05:59:13;;;;;;;7.28;4.30;;;26.90;86.50;;;;;;4987353;28;20117;-82
2023/07/25 06:01:39;;;;;;;7.43;3.88;;;27.60;84.60;;;;;;4988527;28;20022;-83
2023/07/25 06:04:05;;;;;;;10.60;4.13;;;28.40;81.80;;;;;;4987666;28;20539;-82
2023/07/25 06:06:31;;;;;;;7.18;3.65;;;29.60;77.90;;;;;;4988928;28;20025;-82
2023/07/25 06:08:57;;;;;;;7.15;4.43;;;30.70;73.30;;;;;;4988855;28;20030;-82
2023/07/25 06:11:23;;;;;;;6.10;4.53;;;31.20;68.70;;;;;;4988069;28;20034;-83
2023/07/25 06:13:52;;;;;;;25.85;4.13;;;31.20;66.60;;;;;;4987642;28;20030;-82
2023/07/25 06:16:18;;;;;;;7.53;3.90;;;31.00;66.10;;;;;;4988907;28;20494;-82
2023/07/25 06:18:44;;;;;;;9.40;4.40;;;31.20;64.90;;;;;;4989220;28;20027;-83
2023/07/25 06:21:10;;;;;;;9.20;4.07;;;32.00;62.90;;;;;;4987352;28;20023;-83
2023/07/25 06:23:36;;;;;;;8.95;3.88;;;33.20;57.60;;;;;;4988783;28;20042;-82
2023/07/25 06:26:01;;;;;;;11.25;4.45;;;34.00;55.30;;;;;;4986765;28;20033;-82
2023/07/25 06:28:27;;;;;;;11.38;3.78;;;34.80;52.30;;;;;;4986361;28;20037;-83
2023/07/25 06:30:53;;;;;;;5.90;3.85;;;35.50;49.90;;;;;;4988094;28;20030;-83
2023/07/25 06:33:19;;;;;;;6.40;4.10;;;35.90;49.10;;;;;;4986944;28;20583;-81
2023/07/25 06:35:44;;;;;;;12.38;4.15;;;36.00;47.60;;;;;;4988107;28;20033;-82
2023/07/25 06:38:10;;;;;;;9.93;4.15;;;36.40;46.30;;;;;;4988164;28;20586;-82
2023/07/25 06:40:36;;;;;;;7.40;4.53;;;36.10;45.90;;;;;;4986541;28;20054;-82
2023/07/25 06:43:01;;;;;;;11.18;4.32;;;36.60;44.90;;;;;;4986337;28;20034;-81
2023/07/25 06:45:27;;;;;;;7.50;4.63;;;37.10;44.00;;;;;;4988045;28;20061;-81
2023/07/25 06:47:53;;;;;;;6.25;4.40;;;37.80;42.60;;;;;;4986335;28;20336;-81
2023/07/25 06:50:18;;;;;;;6.40;4.00;;;37.90;42.30;;;;;;4987554;28;20042;-82
2023/07/25 06:52:44;;;;;;;7.80;3.90;;;38.10;41.20;;;;;;4986479;28;20034;-81
2023/07/25 06:55:10;;;;;;;7.45;4.82;;;38.30;40.90;;;;;;4987418;28;20022;-82
2023/07/25 06:57:36;;;;;;;6.90;3.95;;;38.40;40.80;;;;;;4986272;28;20031;-82
2023/07/25 07:00:03;;;;;;;5.50;3.97;;;38.70;39.60;;;;;;4985862;28;20030;-82
2023/07/25 07:02:28;;;;;;;5.38;3.92;;;38.70;38.60;;;;;;4987148;28;20022;-82
2023/07/25 07:04:56;;;;;;;6.78;4.60;;;38.30;39.90;;;;;;4987390;28;20040;-83
2023/07/25 07:07:21;;;;;;;12.68;4.10;;;38.10;40.00;;;;;;4987712;28;20022;-82
2023/07/25 07:09:47;;;;;;;11.90;3.75;;;37.90;40.10;;;;;;4987479;28;20080;-82
2023/07/25 07:12:14;;;;;;;9.35;3.67;;;37.80;39.40;;;;;;4986385;28;20057;-82
2023/07/25 07:14:40;;;;;;;5.10;3.65;;;37.90;40.20;;;;;;4990560;28;20027;-82
2023/07/25 07:17:05;;;;;;;4.95;4.05;;;38.00;39.80;;;;;;4989730;28;20498;-81
2023/07/25 07:19:31;;;;;;;7.57;4.00;;;38.40;39.10;;;;;;4990906;28;20566;-82
2023/07/25 07:21:56;;;;;;;4.97;3.70;;;38.00;39.40;;;;;;4989820;28;20083;-82
2023/07/25 07:24:22;;;;;;;10.50;3.70;;;37.70;40.30;;;;;;4989462;28;20048;-82
2023/07/25 07:26:48;;;;;;;6.03;3.67;;;37.40;40.00;;;;;;4989614;28;20061;-82
2023/07/25 07:29:13;;;;;;;7.80;3.95;;;37.20;39.90;;;;;;4990672;28;20032;-82
2023/07/25 07:31:39;;;;;;;8.63;3.60;;;36.90;41.70;;;;;;4988759;28;20076;-81
2023/07/25 07:34:16;;;;;;;9.30;4.40;;;36.10;41.90;;;;;;4990853;28;20041;-82
2023/07/25 07:36:42;;;;;;;7.10;4.18;;;35.50;43.40;;;;;;4989176;28;20399;-82
2023/07/25 07:39:08;;;;;;;6.80;4.28;;;35.00;44.60;;;;;;4989540;28;20039;-82
2023/07/25 07:41:34;;;;;;;5.80;4.13;;;34.70;45.30;;;;;;4988957;28;20043;-81
2023/07/25 07:44:01;;;;;;;5.10;4.25;;;34.20;46.10;;;;;;4990728;28;20034;-80
2023/07/25 07:46:29;;;;;;;7.20;4.22;;;34.00;47.20;;;;;;4989543;28;20027;-81
2023/07/25 07:48:56;;;;;;;9.23;5.03;;;34.10;47.20;;;;;;4989208;28;20038;-82
2023/07/25 07:51:21;;;;;;;11.60;4.32;;;34.30;47.30;;;;;;4990078;28;20026;-82
2023/07/25 07:53:47;;;;;;;5.80;4.18;;;34.50;46.80;;;;;;4990450;28;20506;-82
2023/07/25 07:56:13;;;;;;;7.82;4.97;;;35.00;45.90;;;;;;4990337;28;20027;-81
2023/07/25 07:58:38;;;;;;;11.80;5.88;;;35.40;44.00;;;;;;4988953;28;20038;-80
2023/07/25 08:01:12;;;;;;;7.80;5.00;;;34.80;45.30;;;;;;4990511;28;20030;-81
2023/07/25 08:03:38;;;;;;;6.45;4.63;;;35.30;48.20;;;;;;4990333;28;20046;-82
2023/07/25 08:06:03;;;;;;;11.85;4.72;;;35.40;45.70;;;;;;4990550;28;20030;-82
2023/07/25 08:08:29;;;;;;;10.63;4.28;;;35.20;46.10;;;;;;4989012;28;20022;-82
2023/07/25 08:10:54;;;;;;;8.70;4.50;;;35.20;46.90;;;;;;4990350;28;20034;-82
2023/07/25 08:13:20;;;;;;;9.70;5.07;;;35.00;46.70;;;;;;4990167;28;20034;-82
2023/07/25 08:15:46;;;;;;;13.80;4.90;;;34.60;47.50;;;;;;4988971;28;20030;-82
2023/07/25 08:18:13;;;;;;;14.05;5.68;;;34.50;48.30;;;;;;4990692;28;20433;-82
2023/07/25 08:20:38;;;;;;;12.52;4.90;;;34.30;48.60;;;;;;4990670;28;20039;-83
2023/07/25 08:23:04;;;;;;;11.75;5.82;;;33.90;49.40;;;;;;4990493;28;20076;-81
2023/07/25 08:25:30;;;;;;;8.65;5.32;;;33.70;50.10;;;;;;4990575;28;20034;-83
2023/07/25 08:27:55;;;;;;;9.40;5.28;;;33.30;49.50;;;;;;4989013;28;20037;-82
2023/07/25 08:30:21;;;;;;;9.70;5.05;;;32.80;50.90;;;;;;4988802;28;20506;-80
2023/07/25 08:32:46;;;;;;;21.70;6.03;;;32.20;52.20;;;;;;4988842;28;20519;-81
2023/07/25 08:35:12;;;;;;;10.15;5.20;;;31.60;52.70;;;;;;4990198;28;20435;-82
2023/07/25 08:37:38;;;;;;;9.70;5.68;;;31.10;54.30;;;;;;4990034;28;20109;-81
2023/07/25 08:40:04;;;;;;;13.18;5.82;;;30.60;55.20;;;;;;4989845;28;20034;-82
2023/07/25 08:42:32;;;;;;;11.75;6.38;;;30.20;56.10;;;;;;4988769;28;20045;-81
2023/07/25 08:44:59;;;;;;;9.98;4.95;;;29.90;57.00;;;;;;4987760;28;20087;-81
2023/07/25 08:47:31;;;;;;;17.27;6.10;;;29.50;58.10;;;;;;4989234;28;20030;-80
2023/07/25 08:50:00;;;;;;;12.55;5.68;;;29.20;59.30;;;;;;4988476;28;20065;-80
2023/07/25 08:52:31;;;;;;;9.90;5.82;;;29.00;60.50;;;;;;4988672;28;20030;-82
2023/07/25 08:54:57;;;;;;;9.65;5.88;;;28.80;61.20;;;;;;4988180;28;20027;-80
2023/07/25 08:57:23;;;;;;;21.88;6.07;;;28.60;61.60;;;;;;4989955;28;20109;-81
2023/07/25 08:59:50;;;;;;;17.95;6.28;;;28.50;61.70;;;;;;4989601;28;20031;-82
2023/07/25 09:02:17;;;;;;;20.20;6.40;;;28.40;62.60;;;;;;4989550;28;20035;-81
2023/07/25 09:04:45;;;;;;;12.95;4.88;;;28.20;63.00;;;;;;4988127;28;20035;-81
2023/07/25 09:07:11;;;;;;;15.45;5.63;;;28.00;63.60;;;;;;4989794;28;20015;-80
2023/07/25 09:09:37;;;;;;;12.75;5.88;;;28.00;65.30;;;;;;4988479;28;20427;-82
2023/07/25 09:12:03;;;;;;;14.98;5.85;;;27.90;65.70;;;;;;4989928;28;20053;-82
2023/07/25 09:14:29;;;;;;;10.60;5.20;;;27.80;66.10;;;;;;4989499;28;20506;-81
2023/07/25 09:16:54;;;;;;;8.52;4.53;;;27.60;66.50;;;;;;4989396;28;20105;-82
2023/07/25 09:19:20;;;;;;;10.82;5.95;;;27.50;67.70;;;;;;4987511;28;20163;-81
2023/07/25 09:21:48;;;;;;;13.60;5.55;;;27.40;68.10;;;;;;4989274;28;20068;-81
2023/07/25 09:24:14;;;;;;;12.25;5.43;;;27.30;68.50;;;;;;4988125;28;20049;-82
2023/07/25 09:26:41;;;;;;;16.02;5.82;;;27.20;70.60;;;;;;4988108;28;20026;-82
2023/07/25 09:29:07;;;;;;;8.10;5.30;;;27.00;72.50;;;;;;4989137;28;20403;-82
2023/07/25 09:31:43;;;;;;;13.35;5.82;;;26.90;75.90;;;;;;4989455;28;20083;-82
2023/07/25 09:34:13;;;;;;;12.00;5.97;;;26.80;78.70;;;;;;4988230;28;20030;-82
2023/07/25 09:36:39;;;;;;;14.52;6.57;;;26.70;85.10;;;;;;4989558;28;20101;-83
2023/07/25 09:39:05;;;;;;;12.20;6.38;;;26.40;90.80;;;;;;4988287;28;20184;-83
2023/07/25 09:41:30;;;;;;;17.23;7.68;;;26.10;95.60;;;;;;4988353;28;20520;-83
2023/07/25 09:44:05;;;;;;;18.92;6.43;;;25.80;99.90;;;;;;4990123;28;20043;-83
2023/07/25 09:46:31;;;;;;;11.38;6.00;;;25.60;99.90;;;;;;4989635;28;20026;-83
2023/07/25 09:48:57;;;;;;;12.77;6.72;;;25.30;99.90;;;;;;4988363;28;20079;-83
2023/07/25 09:51:22;;;;;;;22.23;6.80;;;25.20;99.90;;;;;;4989522;28;20030;-83
2023/07/25 09:53:53;;;;;;;17.27;6.22;;;25.10;99.90;;;;;;4987867;28;20030;-83
2023/07/25 09:56:24;;;;;;;11.52;6.65;;;25.00;99.90;;;;;;4988144;28;20019;-81
2023/07/25 09:58:51;;;;;;;16.38;6.25;;;24.90;99.90;;;;;;4987845;28;20057;-83
2023/07/25 10:01:17;;;;;;;15.48;6.57;;;24.70;99.90;;;;;;4987661;28;20027;-82
2023/07/25 10:03:44;;;;;;;12.02;5.70;;;24.70;99.90;;;;;;4988680;28;20179;-81
2023/07/25 10:06:10;;;;;;;15.38;6.82;;;24.70;99.90;;;;;;4988173;28;20027;-83
2023/07/25 10:08:39;;;;;;;17.40;7.32;;;24.70;99.90;;;;;;4989378;28;20036;-83
2023/07/25 10:11:05;;;;;;;17.45;6.68;;;24.60;99.90;;;;;;4987461;28;20127;-82
2023/07/25 10:13:34;;;;;;;16.58;7.30;;;24.40;99.90;;;;;;4986698;28;20034;-82
2023/07/25 10:16:01;;;;;;;15.85;6.35;;;24.10;99.90;;;;;;4987176;28;20031;-82
2023/07/25 10:18:31;;;;;;;15.60;6.60;;;24.00;99.90;;;;;;4986889;28;20041;-83
2023/07/25 10:20:57;;;;;;;15.48;6.10;;;23.90;99.90;;;;;;4986904;28;20502;-83
2023/07/25 10:23:37;;;;;;;18.80;6.13;;;23.70;99.90;;;;;;4988124;28;20046;-82
2023/07/25 10:26:10;;;;;;;11.70;5.40;;;23.50;99.90;;;;;;4988116;28;20019;-82
2023/07/25 10:28:36;;;;;;;11.85;4.80;;;23.50;99.90;;;;;;4988114;28;20036;-82
2023/07/25 10:31:08;;;;;;;11.35;5.10;;;23.60;99.90;;;;;;4988231;28;20018;-82
2023/07/25 10:33:38;;;;;;;9.93;5.25;;;23.80;99.90;;;;;;4988190;28;20030;-81
2023/07/25 10:36:05;;;;;;;11.18;4.90;;;24.00;99.90;;;;;;4986489;28;20054;-81
2023/07/25 10:38:33;;;;;;;15.80;6.60;;;24.00;99.90;;;;;;4987924;28;20083;-79
2023/07/25 10:41:09;;;;;;;14.38;5.25;;;24.20;99.90;;;;;;4986566;28;20053;-81
2023/07/25 10:43:52;;;;;;;11.25;5.50;;;24.30;99.90;;;;;;4987843;28;20026;-81
2023/07/25 10:46:22;;;;;;;10.45;4.32;;;24.50;99.90;;;;;;4987944;28;20026;-81
2023/07/25 10:48:50;;;;;;;10.15;5.40;;;24.80;99.90;;;;;;4986892;28;20030;-81
2023/07/25 10:51:17;;;;;;;8.02;4.45;;;25.20;99.90;;;;;;4987950;28;20038;-81
2023/07/25 10:54:07;;;;;;;12.05;5.88;;;25.40;99.90;;;;;;4987944;28;20510;-80
2023/07/25 10:56:33;;;;;;;10.00;5.10;;;25.20;99.90;;;;;;4986665;28;20026;-81
2023/07/25 10:59:03;;;;;;;13.80;5.13;;;25.10;99.90;;;;;;4986373;28;20448;-82
2023/07/25 11:01:34;;;;;;;9.80;5.00;;;25.10;99.90;;;;;;4987733;28;20091;-82
2023/07/25 11:04:30;;;;;;;10.82;4.90;;;25.10;99.90;;;;;;4987752;28;20522;-82
2023/07/25 11:07:09;;;;;;;13.75;5.22;;;25.30;99.90;;;;;;4987112;28;20054;-82
2023/07/25 11:09:40;;;;;;;11.13;4.85;;;25.40;99.90;;;;;;4986399;28;20030;-81
2023/07/25 11:12:06;;;;;;;12.38;5.40;;;25.60;99.90;;;;;;4987743;28;20058;-83
2023/07/25 11:14:38;;;;;;;10.77;5.20;;;25.80;99.90;;;;;;4987667;28;20093;-80
2023/07/25 11:17:04;;;;;;;8.13;4.45;;;26.10;99.90;;;;;;4986435;28;20033;-82
2023/07/25 11:19:30;;;;;;;8.27;4.82;;;26.50;99.90;;;;;;4987590;28;20027;-81
2023/07/25 11:21:56;;;;;;;13.35;4.93;;;26.80;99.90;;;;;;4987758;28;20126;-82
2023/07/25 11:24:21;;;;;;;10.88;4.45;;;26.90;99.90;;;;;;4987847;28;20038;-82
2023/07/25 11:26:47;;;;;;;8.65;5.38;;;27.00;99.90;;;;;;4986353;28;20057;-83
2023/07/25 11:29:13;;;;;;;8.32;4.72;;;27.00;99.90;;;;;;4987928;28;20027;-81
2023/07/25 11:31:46;;;;;;;8.90;4.63;;;27.00;99.90;;;;;;4987058;28;20061;-81
2023/07/25 11:34:13;;;;;;;14.02;5.35;;;27.00;99.90;;;;;;4986183;28;20037;-81
2023/07/25 11:36:40;;;;;;;7.93;4.63;;;27.00;99.90;;;;;;4987612;28;20075;-82
2023/07/25 11:39:10;;;;;;;7.75;4.53;;;27.20;99.90;;;;;;4987624;28;20038;-82
2023/07/25 11:41:37;;;;;;;8.10;3.72;;;27.30;99.90;;;;;;4987367;28;20130;-83
2023/07/25 11:44:09;;;;;;;13.40;4.80;;;27.50;99.90;;;;;;4987341;28;20464;-82
2023/07/25 11:46:37;;;;;;;11.82;4.50;;;27.70;99.90;;;;;;4987169;28;20060;-82
2023/07/25 11:49:04;;;;;;;8.45;3.80;;;27.80;99.90;;;;;;4987310;28;20066;-82
2023/07/25 11:51:31;;;;;;;7.65;4.07;;;27.90;99.90;;;;;;4986175;28;20076;-82
2023/07/25 11:53:57;;;;;;;12.10;3.88;;;27.70;99.90;;;;;;4987371;28;20479;-82
2023/07/25 11:56:23;;;;;;;9.90;4.28;;;27.60;99.90;;;;;;4987607;28;20078;-82
2023/07/25 11:58:49;;;;;;;6.28;3.92;;;27.50;99.90;;;;;;4985968;28;20031;-82
2023/07/25 12:01:16;;;;;;;5.43;3.30;;;27.30;99.90;;;;;;4990078;28;20514;-82
2023/07/25 12:03:50;;;;;;;7.88;4.22;;;27.20;99.90;;;;;;4988918;28;20049;-83
2023/07/25 12:06:25;;;;;;;7.97;3.05;;;27.00;99.90;;;;;;4990006;28;20029;-83
2023/07/25 12:08:50;;;;;;;7.57;2.90;;;27.30;99.40;;;;;;4989825;28;20561;-82
2023/07/25 12:11:16;;;;;;;7.78;3.75;;;27.50;98.40;;;;;;4988870;28;20710;-83
2023/07/25 12:13:54;;;;;;;7.10;2.97;;;27.60;97.30;;;;;;4988628;28;20534;-82
2023/07/25 12:16:31;;;;;;;6.57;2.92;;;27.50;96.60;;;;;;4989994;28;20072;-82
2023/07/25 12:19:03;;;;;;;7.63;3.58;;;27.50;95.60;;;;;;4989001;28;20399;-81
2023/07/25 12:21:31;;;;;;;5.25;3.38;;;27.30;96.50;;;;;;4990006;28;20093;-81
2023/07/25 12:23:59;;;;;;;6.68;2.97;;;27.40;96.10;;;;;;4987688;28;20041;-82
2023/07/25 12:26:25;;;;;;;6.65;3.65;;;27.30;94.80;;;;;;4989011;28;20027;-83
2023/07/25 12:28:51;;;;;;;5.55;3.08;;;27.60;97.40;;;;;;4989934;28;20109;-82
2023/07/25 12:31:17;;;;;;;8.85;2.85;;;27.80;98.20;;;;;;4989216;28;20552;-83
2023/07/25 12:33:44;;;;;;;6.85;3.40;;;27.90;95.50;;;;;;4988238;28;20026;-82
2023/07/25 12:36:11;;;;;;;5.68;3.17;;;27.90;95.90;;;;;;4990350;28;20023;-82
2023/07/25 12:38:36;;;;;;;4.63;2.70;;;28.00;95.90;;;;;;4990140;28;20495;-83